Time;durP1;ratioP1;P1;durP2;ratioP2;P2;SDS_P1;SDS_P2;PMS_P1;PMS_P2;Temp;Humidity;BMP_temperature;BMP_pressure;BME280_temperature;BME280_humidity;BME280_pressure;Samples;Min_cycle;Max_cycle;Signal;HPM_P1;HPM_P2
2021/11/13 00:01:26;;;;;;;18.57;10.07;;;7.70;99.90;;;;;;5058187;28;20046;-83
2021/11/13 00:03:52;;;;;;;17.03;10.23;;;7.70;99.90;;;;;;5057923;28;20032;-83
2021/11/13 00:06:20;;;;;;;18.10;9.83;;;7.70;99.90;;;;;;5077180;28;20025;-83
2021/11/13 00:08:47;;;;;;;16.50;9.53;;;7.70;99.90;;;;;;5076366;28;20033;-82
2021/11/13 00:11:13;;;;;;;16.50;9.87;;;7.70;99.90;;;;;;5059390;28;20091;-83
2021/11/13 00:13:39;;;;;;;17.37;10.20;;;7.70;99.90;;;;;;5074704;28;20111;-83
2021/11/13 00:16:07;;;;;;;15.90;9.20;;;7.70;99.90;;;;;;5077132;28;20032;-83
2021/11/13 00:18:35;;;;;;;15.97;10.00;;;7.70;99.90;;;;;;5076436;28;20032;-83
2021/11/13 00:21:05;;;;;;;16.30;9.88;;;7.80;99.90;;;;;;5057503;28;20033;-83
2021/11/13 00:23:31;;;;;;;17.80;9.97;;;7.80;99.90;;;;;;5075817;28;20028;-82
2021/11/13 00:25:58;;;;;;;16.23;10.30;;;7.80;99.90;;;;;;5076960;28;20067;-84
2021/11/13 00:28:26;;;;;;;17.10;9.70;;;7.80;99.90;;;;;;5058769;28;20044;-83
2021/11/13 00:30:52;;;;;;;19.23;10.30;;;7.80;99.90;;;;;;5075888;28;20044;-83
2021/11/13 00:33:18;;;;;;;17.63;9.83;;;7.80;99.90;;;;;;5056929;28;20028;-83
2021/11/13 00:35:44;;;;;;;15.83;10.50;;;7.80;99.90;;;;;;5039502;28;20031;-83
2021/11/13 00:38:10;;;;;;;17.17;9.33;;;7.80;99.90;;;;;;5055715;28;20424;-83
2021/11/13 00:40:36;;;;;;;17.43;9.70;;;7.80;99.90;;;;;;5073847;28;20047;-84
2021/11/13 00:43:02;;;;;;;15.73;9.77;;;7.80;99.90;;;;;;5055683;28;20489;-83
2021/11/13 00:45:28;;;;;;;17.40;9.67;;;7.80;99.90;;;;;;5055840;28;20039;-83
2021/11/13 00:47:55;;;;;;;20.97;10.33;;;7.80;99.90;;;;;;5056036;28;20036;-83
2021/11/13 00:50:21;;;;;;;15.43;9.77;;;7.80;99.90;;;;;;5073704;28;20063;-83
2021/11/13 00:52:47;;;;;;;16.43;9.87;;;7.80;99.90;;;;;;5073791;28;20028;-83
2021/11/13 00:55:18;;;;;;;16.03;9.77;;;7.80;99.90;;;;;;5055507;28;20078;-82
2021/11/13 00:57:44;;;;;;;17.40;10.13;;;7.70;99.90;;;;;;5071125;28;20028;-83
2021/11/13 01:00:14;;;;;;;16.90;10.07;;;7.70;99.90;;;;;;5054908;28;20052;-83
2021/11/13 01:02:40;;;;;;;19.15;10.93;;;7.70;99.90;;;;;;5072285;28;20028;-83
2021/11/13 01:05:07;;;;;;;17.00;9.63;;;7.70;99.90;;;;;;5073461;28;20020;-82
2021/11/13 01:07:33;;;;;;;18.67;10.47;;;7.70;99.90;;;;;;5055524;28;20046;-83
2021/11/13 01:10:00;;;;;;;16.83;10.63;;;7.70;99.90;;;;;;5072742;28;20112;-83
2021/11/13 01:12:26;;;;;;;16.03;9.80;;;7.70;99.90;;;;;;5055509;28;20029;-83
2021/11/13 01:14:51;;;;;;;18.27;10.67;;;7.70;99.90;;;;;;5054902;28;20445;-82
2021/11/13 01:17:17;;;;;;;16.73;10.50;;;7.60;99.90;;;;;;5073389;28;20060;-82
2021/11/13 01:19:46;;;;;;;18.00;10.60;;;7.70;99.90;;;;;;5037919;28;20032;-83
2021/11/13 01:22:13;;;;;;;18.93;10.27;;;7.60;99.90;;;;;;5073549;28;20519;-82
2021/11/13 01:24:39;;;;;;;15.90;9.80;;;7.60;99.90;;;;;;5073483;28;20418;-83
2021/11/13 01:27:05;;;;;;;16.97;9.93;;;7.70;99.90;;;;;;5073375;28;20139;-83
2021/11/13 01:29:31;;;;;;;16.97;10.23;;;7.60;99.90;;;;;;5070665;28;20031;-83
2021/11/13 01:31:57;;;;;;;15.40;9.00;;;7.70;99.90;;;;;;5073678;28;20103;-82
2021/11/13 01:34:24;;;;;;;17.53;9.93;;;7.70;99.90;;;;;;5055524;28;20124;-83
2021/11/13 01:36:50;;;;;;;17.10;9.03;;;7.70;99.90;;;;;;5073640;28;20115;-84
2021/11/13 01:39:16;;;;;;;16.50;9.73;;;7.70;99.90;;;;;;5072623;28;20025;-83
2021/11/13 01:41:42;;;;;;;17.00;10.27;;;7.70;99.90;;;;;;5073283;28;20135;-84
2021/11/13 01:44:09;;;;;;;17.10;9.43;;;7.80;99.90;;;;;;5071702;28;20055;-83
2021/11/13 01:46:36;;;;;;;16.47;10.07;;;7.70;99.90;;;;;;5073487;28;20024;-83
2021/11/13 01:49:02;;;;;;;16.50;9.73;;;7.80;99.90;;;;;;5071081;28;20384;-83
2021/11/13 01:51:30;;;;;;;17.03;9.90;;;7.80;99.90;;;;;;5073970;28;20024;-83
2021/11/13 01:54:05;;;;;;;16.03;9.53;;;7.80;99.90;;;;;;5055193;28;20060;-83
2021/11/13 01:56:31;;;;;;;15.67;9.60;;;7.80;99.90;;;;;;5073935;28;20028;-83
2021/11/13 01:58:59;;;;;;;16.37;9.40;;;7.80;99.90;;;;;;5070862;28;20485;-83
2021/11/13 02:01:26;;;;;;;16.90;9.47;;;7.90;99.90;;;;;;5072713;28;20049;-83
2021/11/13 02:03:52;;;;;;;15.57;8.90;;;7.80;99.90;;;;;;5072569;28;20075;-84
2021/11/13 02:06:19;;;;;;;17.53;10.43;;;7.80;99.90;;;;;;5071130;28;20056;-83
2021/11/13 02:08:45;;;;;;;16.70;10.23;;;7.80;99.90;;;;;;5054068;28;20024;-83
2021/11/13 02:11:14;;;;;;;16.27;9.73;;;7.80;99.90;;;;;;5053966;28;20464;-83
2021/11/13 02:13:40;;;;;;;15.57;9.73;;;7.80;99.90;;;;;;5071888;28;20028;-83
2021/11/13 02:16:10;;;;;;;17.90;10.15;;;7.70;99.90;;;;;;5071656;28;20046;-83
2021/11/13 02:18:40;;;;;;;16.70;9.90;;;7.70;99.90;;;;;;5072611;28;20028;-83
2021/11/13 02:21:09;;;;;;;20.07;10.57;;;7.70;99.90;;;;;;5071327;28;20215;-83
2021/11/13 02:23:35;;;;;;;17.60;9.95;;;7.70;99.90;;;;;;5073344;28;20508;-83
2021/11/13 02:26:02;;;;;;;18.83;10.37;;;7.70;99.90;;;;;;5073384;28;20479;-83
2021/11/13 02:28:29;;;;;;;18.27;11.10;;;7.70;99.90;;;;;;5073193;28;20031;-84
2021/11/13 02:30:58;;;;;;;18.93;10.83;;;7.70;99.90;;;;;;5054838;28;20091;-83
2021/11/13 02:33:24;;;;;;;17.17;10.23;;;7.70;99.90;;;;;;5055348;28;20032;-83
2021/11/13 02:35:53;;;;;;;17.77;10.60;;;7.80;99.90;;;;;;5073931;28;20105;-83
2021/11/13 02:38:20;;;;;;;18.52;11.18;;;7.70;99.90;;;;;;5055279;28;20020;-83
2021/11/13 02:40:49;;;;;;;18.77;11.37;;;7.70;99.90;;;;;;5071577;28;20034;-83
2021/11/13 02:43:16;;;;;;;21.35;11.60;;;7.70;99.90;;;;;;5055132;28;20145;-83
2021/11/13 02:45:44;;;;;;;19.07;10.57;;;7.60;99.90;;;;;;5055335;28;20036;-84
2021/11/13 02:48:10;;;;;;;19.73;10.90;;;7.70;99.90;;;;;;5071543;28;20036;-83
2021/11/13 02:50:37;;;;;;;19.77;11.20;;;7.70;99.90;;;;;;5054500;28;20116;-84
2021/11/13 02:53:09;;;;;;;18.97;11.23;;;7.70;99.90;;;;;;5073799;28;20040;-84
2021/11/13 02:55:35;;;;;;;20.67;10.97;;;7.70;99.90;;;;;;5055878;28;20046;-83
2021/11/13 02:58:01;;;;;;;20.87;12.37;;;7.70;99.90;;;;;;5072069;28;20099;-84
2021/11/13 03:00:28;;;;;;;18.47;11.93;;;7.70;99.90;;;;;;5054720;28;20079;-84
2021/11/13 03:02:55;;;;;;;17.90;10.97;;;7.80;99.90;;;;;;5055943;28;20108;-83
2021/11/13 03:05:36;;;;;;;22.53;12.57;;;7.70;99.90;;;;;;5055016;28;20535;-84
2021/11/13 03:08:05;;;;;;;22.60;12.37;;;7.70;99.90;;;;;;5055302;28;20033;-84
2021/11/13 03:10:36;;;;;;;20.52;12.05;;;7.80;99.90;;;;;;5054476;28;20481;-84
2021/11/13 03:13:03;;;;;;;21.03;11.63;;;7.80;99.90;;;;;;5073571;28;20829;-84
2021/11/13 03:15:29;;;;;;;21.13;11.80;;;7.80;99.90;;;;;;5072208;28;20135;-84
2021/11/13 03:17:58;;;;;;;20.17;12.13;;;7.80;99.90;;;;;;5074137;28;20166;-84
2021/11/13 03:20:29;;;;;;;21.65;11.30;;;7.80;99.90;;;;;;5072855;28;20036;-84
2021/11/13 03:23:00;;;;;;;21.17;12.30;;;7.80;99.90;;;;;;5072595;28;20345;-84
2021/11/13 03:25:30;;;;;;;19.70;11.73;;;7.70;99.90;;;;;;5056073;28;20106;-84
2021/11/13 03:27:59;;;;;;;20.83;12.37;;;7.70;99.90;;;;;;5073578;28;20051;-84
2021/11/13 03:30:25;;;;;;;21.67;12.03;;;7.70;99.90;;;;;;5055482;28;20032;-84
2021/11/13 03:32:53;;;;;;;24.13;13.33;;;7.70;99.90;;;;;;5039941;28;20035;-84
2021/11/13 03:35:27;;;;;;;21.77;12.53;;;7.70;99.90;;;;;;5074129;28;20527;-83
2021/11/13 03:37:55;;;;;;;23.67;12.80;;;7.70;99.90;;;;;;5074493;28;20150;-84
2021/11/13 03:40:20;;;;;;;21.10;11.97;;;7.70;99.90;;;;;;5055951;28;20032;-84
2021/11/13 03:42:46;;;;;;;22.30;12.43;;;7.80;99.90;;;;;;5075029;28;20032;-83
2021/11/13 03:45:12;;;;;;;23.40;13.70;;;7.80;99.90;;;;;;5055978;28;20029;-83
2021/11/13 03:47:38;;;;;;;23.17;12.80;;;7.70;99.90;;;;;;5057192;28;20035;-84
2021/11/13 03:50:05;;;;;;;22.63;13.17;;;7.80;99.90;;;;;;5071720;28;20033;-84
2021/11/13 03:52:31;;;;;;;21.17;12.10;;;7.70;99.90;;;;;;5075288;28;20024;-84
2021/11/13 03:54:57;;;;;;;25.87;13.93;;;7.70;99.90;;;;;;5057482;28;20100;-84
2021/11/13 03:57:23;;;;;;;24.87;13.67;;;7.70;99.90;;;;;;5074891;28;20024;-83
2021/11/13 03:59:49;;;;;;;25.43;12.77;;;7.80;99.90;;;;;;5068528;28;20024;-83
2021/11/13 04:02:17;;;;;;;23.57;13.20;;;7.70;99.90;;;;;;5071479;28;20033;-83
2021/11/13 04:04:42;;;;;;;21.37;12.83;;;7.80;99.90;;;;;;5052855;28;20032;-83
2021/11/13 04:07:09;;;;;;;23.73;12.83;;;7.70;99.90;;;;;;5052921;28;20140;-82
2021/11/13 04:09:35;;;;;;;22.00;12.27;;;7.70;99.90;;;;;;5070057;28;20020;-82
2021/11/13 04:12:06;;;;;;;21.40;13.80;;;7.60;99.90;;;;;;5071238;28;20032;-83
2021/11/13 04:14:36;;;;;;;24.77;13.03;;;7.70;99.90;;;;;;5052298;28;20032;-82
2021/11/13 04:17:04;;;;;;;25.10;13.93;;;7.70;99.90;;;;;;5053249;28;20044;-83
2021/11/13 04:19:33;;;;;;;25.47;13.87;;;7.70;99.90;;;;;;5052189;28;20539;-83
2021/11/13 04:21:59;;;;;;;24.63;14.55;;;7.70;99.90;;;;;;5071142;28;20456;-83
2021/11/13 04:24:24;;;;;;;23.17;13.97;;;7.70;99.90;;;;;;5069525;28;20075;-82
2021/11/13 04:26:51;;;;;;;25.83;14.80;;;7.70;99.90;;;;;;5053257;28;20032;-83
2021/11/13 04:29:17;;;;;;;25.20;14.30;;;7.70;99.90;;;;;;5052238;28;20103;-82
2021/11/13 04:31:43;;;;;;;23.83;13.80;;;7.70;99.90;;;;;;5053875;28;20029;-82
2021/11/13 04:34:13;;;;;;;24.33;14.17;;;7.70;99.90;;;;;;5056977;28;20511;-83
2021/11/13 04:36:43;;;;;;;24.83;14.33;;;7.70;99.90;;;;;;5056885;28;20032;-83
2021/11/13 04:39:10;;;;;;;24.93;14.53;;;7.70;99.90;;;;;;5055672;28;20028;-83
2021/11/13 04:41:38;;;;;;;25.87;13.63;;;7.70;99.90;;;;;;5056109;28;20547;-82
2021/11/13 04:44:04;;;;;;;26.67;14.57;;;7.70;99.90;;;;;;5055677;28;20063;-84
2021/11/13 04:46:30;;;;;;;24.03;14.40;;;7.70;99.90;;;;;;5056147;28;20072;-83
2021/11/13 04:48:55;;;;;;;24.23;14.77;;;7.80;99.90;;;;;;5055030;28;20032;-82
2021/11/13 04:51:24;;;;;;;24.27;13.93;;;7.80;99.90;;;;;;5055811;28;20032;-83
2021/11/13 04:53:50;;;;;;;24.07;14.20;;;7.80;99.90;;;;;;5056394;28;20028;-84
2021/11/13 04:56:16;;;;;;;25.63;13.33;;;7.80;99.90;;;;;;5056201;28;20086;-84
2021/11/13 04:58:43;;;;;;;25.60;14.40;;;7.80;99.90;;;;;;5073713;28;20040;-84
2021/11/13 05:01:09;;;;;;;28.07;14.50;;;7.80;99.90;;;;;;5039114;28;20037;-83
2021/11/13 05:03:34;;;;;;;26.30;14.30;;;7.80;99.90;;;;;;5056224;28;20028;-85
2021/11/13 05:06:00;;;;;;;25.30;14.63;;;7.80;99.90;;;;;;5039808;28;20024;-84
2021/11/13 05:08:26;;;;;;;27.67;14.37;;;7.80;99.90;;;;;;5056381;28;20118;-83
2021/11/13 05:10:52;;;;;;;22.60;13.93;;;7.80;99.90;;;;;;5055943;28;20090;-82
2021/11/13 05:13:19;;;;;;;24.17;14.30;;;7.80;99.90;;;;;;5055388;28;20389;-83
2021/11/13 05:15:45;;;;;;;26.00;14.40;;;7.80;99.90;;;;;;5056635;28;20116;-83
2021/11/13 05:18:11;;;;;;;25.93;14.43;;;7.80;99.90;;;;;;5074114;28;20059;-83
2021/11/13 05:20:38;;;;;;;26.43;14.60;;;7.80;99.90;;;;;;5055316;28;20059;-83
2021/11/13 05:23:04;;;;;;;29.73;15.87;;;7.90;99.90;;;;;;5055559;28;20484;-83
2021/11/13 05:25:30;;;;;;;27.23;15.40;;;7.90;99.90;;;;;;5056219;28;20401;-82
2021/11/13 05:27:56;;;;;;;28.70;16.10;;;7.90;99.90;;;;;;5073805;28;20029;-83
2021/11/13 05:30:24;;;;;;;26.73;16.00;;;8.00;99.90;;;;;;5055972;28;20033;-83
2021/11/13 05:32:50;;;;;;;26.73;15.43;;;8.00;99.90;;;;;;5056833;28;20082;-83
2021/11/13 05:35:17;;;;;;;28.37;15.60;;;8.00;99.90;;;;;;5077329;28;20016;-84
2021/11/13 05:37:43;;;;;;;28.93;16.23;;;7.90;99.90;;;;;;5058326;28;20371;-83
2021/11/13 05:40:11;;;;;;;28.07;16.20;;;8.00;99.90;;;;;;5056455;28;20029;-82
2021/11/13 05:42:38;;;;;;;27.30;16.07;;;8.00;99.90;;;;;;5074249;28;20032;-83
2021/11/13 05:45:06;;;;;;;27.63;15.53;;;8.00;99.90;;;;;;5055241;28;20124;-82
2021/11/13 05:47:32;;;;;;;26.30;15.80;;;8.00;99.90;;;;;;5055899;28;20084;-83
2021/11/13 05:49:58;;;;;;;28.47;14.90;;;8.00;99.90;;;;;;5054499;28;20097;-83
2021/11/13 05:52:23;;;;;;;25.50;14.67;;;8.00;99.90;;;;;;5074205;28;20032;-83
2021/11/13 05:54:49;;;;;;;26.63;14.90;;;8.00;99.90;;;;;;5055537;28;20127;-83
2021/11/13 05:57:15;;;;;;;27.90;16.00;;;8.00;99.90;;;;;;5056418;28;20048;-83
2021/11/13 05:59:41;;;;;;;27.40;15.27;;;8.10;99.90;;;;;;5071820;28;20032;-82
2021/11/13 06:02:07;;;;;;;26.80;15.47;;;8.10;99.90;;;;;;5055153;28;20105;-82
2021/11/13 06:04:33;;;;;;;25.87;14.93;;;8.00;99.90;;;;;;5038566;28;20424;-83
2021/11/13 06:06:59;;;;;;;28.73;15.77;;;8.10;99.90;;;;;;5072301;28;20035;-83
2021/11/13 06:09:26;;;;;;;28.43;15.57;;;8.00;99.90;;;;;;5037618;28;20032;-82
2021/11/13 06:11:52;;;;;;;26.17;15.20;;;8.00;99.90;;;;;;5055318;28;20036;-83
2021/11/13 06:14:18;;;;;;;25.90;15.13;;;8.00;99.90;;;;;;5072001;28;20391;-82
2021/11/13 06:16:44;;;;;;;26.67;14.63;;;8.00;99.90;;;;;;5038397;28;20078;-83
2021/11/13 06:19:09;;;;;;;22.23;14.13;;;8.00;99.90;;;;;;5053761;28;20024;-83
2021/11/13 06:21:35;;;;;;;29.47;14.90;;;8.00;99.90;;;;;;5072918;28;20322;-82
2021/11/13 06:24:01;;;;;;;24.77;15.37;;;8.00;99.90;;;;;;5055313;28;20033;-83
2021/11/13 06:26:27;;;;;;;26.07;14.63;;;8.00;99.90;;;;;;5054370;28;20096;-84
2021/11/13 06:28:53;;;;;;;28.37;14.97;;;8.10;99.90;;;;;;5070354;28;20032;-83
2021/11/13 06:31:18;;;;;;;24.03;14.37;;;8.00;99.90;;;;;;5073107;28;20021;-83
2021/11/13 06:33:44;;;;;;;24.87;14.30;;;8.10;99.90;;;;;;5038118;28;20104;-82
2021/11/13 06:36:10;;;;;;;24.30;14.30;;;8.10;99.90;;;;;;5072808;28;20032;-83
2021/11/13 06:38:36;;;;;;;23.17;13.90;;;8.10;99.90;;;;;;5072568;28;20120;-82
2021/11/13 06:41:02;;;;;;;24.47;14.37;;;8.10;99.90;;;;;;5072258;28;20024;-84
2021/11/13 06:43:28;;;;;;;26.93;14.37;;;8.20;99.90;;;;;;5053822;28;20036;-83
2021/11/13 06:45:53;;;;;;;26.13;15.87;;;8.20;99.90;;;;;;5072590;28;20736;-83
2021/11/13 06:48:20;;;;;;;28.50;14.97;;;8.10;99.90;;;;;;5054119;28;20132;-82
2021/11/13 06:50:47;;;;;;;27.57;15.73;;;8.10;99.90;;;;;;5053917;28;20044;-82
2021/11/13 06:53:13;;;;;;;25.33;15.43;;;8.10;99.90;;;;;;5070942;28;20044;-83
2021/11/13 06:55:39;;;;;;;25.50;15.37;;;8.10;99.90;;;;;;5054247;28;20029;-83
2021/11/13 06:58:05;;;;;;;25.50;14.53;;;8.10;99.90;;;;;;5072059;28;20710;-82
2021/11/13 07:00:31;;;;;;;23.60;14.67;;;8.20;99.90;;;;;;5053491;28;20066;-82
2021/11/13 07:03:00;;;;;;;24.97;14.53;;;8.20;99.90;;;;;;5072112;28;20039;-83
2021/11/13 07:05:27;;;;;;;28.65;16.17;;;8.10;99.90;;;;;;5072032;28;20037;-84
2021/11/13 07:07:54;;;;;;;26.03;14.93;;;8.10;99.90;;;;;;5054675;28;20066;-84
2021/11/13 07:10:21;;;;;;;27.53;15.10;;;8.20;99.90;;;;;;5069837;28;20073;-85
2021/11/13 07:12:48;;;;;;;29.50;15.67;;;8.20;99.90;;;;;;5053709;28;20092;-85
2021/11/13 07:15:16;;;;;;;27.10;15.70;;;8.20;99.90;;;;;;5054619;28;20481;-86
2021/11/13 07:17:42;;;;;;;29.07;16.03;;;8.20;99.90;;;;;;5053509;28;20449;-84
2021/11/13 07:20:09;;;;;;;26.83;15.47;;;8.20;99.90;;;;;;5054594;28;20052;-84
2021/11/13 07:22:36;;;;;;;26.60;15.60;;;8.20;99.90;;;;;;5054550;28;20035;-84
2021/11/13 07:25:02;;;;;;;25.43;15.43;;;8.30;99.90;;;;;;5072506;28;20032;-84
2021/11/13 07:27:28;;;;;;;25.10;14.97;;;8.30;99.90;;;;;;5054783;28;20035;-83
2021/11/13 07:30:04;;;;;;;25.37;15.20;;;8.30;99.90;;;;;;5070603;28;20029;-85
2021/11/13 07:32:30;;;;;;;27.07;15.57;;;8.30;99.90;;;;;;5071401;28;20024;-84
2021/11/13 07:34:57;;;;;;;26.43;15.43;;;8.30;99.90;;;;;;5054845;28;20709;-84
2021/11/13 07:37:26;;;;;;;33.20;16.03;;;8.30;99.90;;;;;;5073493;28;20063;-84
2021/11/13 07:39:54;;;;;;;26.75;14.90;;;8.30;99.90;;;;;;5054205;28;20025;-84
2021/11/13 07:42:20;;;;;;;27.03;14.87;;;8.30;99.90;;;;;;5055024;28;20028;-82
2021/11/13 07:44:47;;;;;;;24.43;14.43;;;8.30;99.90;;;;;;5072321;28;20048;-82
2021/11/13 07:47:14;;;;;;;30.10;15.50;;;8.40;99.90;;;;;;5072358;28;20517;-83
2021/11/13 07:49:40;;;;;;;28.17;16.10;;;8.50;99.90;;;;;;5071080;28;20028;-83
2021/11/13 07:52:07;;;;;;;29.33;15.47;;;8.50;99.90;;;;;;5070055;28;20028;-83
2021/11/13 07:54:33;;;;;;;28.07;16.30;;;8.50;99.90;;;;;;5072993;28;20128;-83
2021/11/13 07:56:59;;;;;;;25.33;14.77;;;8.40;99.90;;;;;;5072342;28;20053;-84
2021/11/13 07:59:25;;;;;;;28.27;15.60;;;8.50;99.90;;;;;;5070261;28;20029;-83
2021/11/13 08:01:51;;;;;;;26.80;16.00;;;8.50;99.90;;;;;;5055751;28;20108;-84
2021/11/13 08:04:16;;;;;;;27.17;15.23;;;8.50;99.90;;;;;;5055111;28;20556;-84
2021/11/13 08:06:42;;;;;;;29.07;15.67;;;8.50;99.90;;;;;;5073571;28;20032;-84
2021/11/13 08:09:08;;;;;;;26.07;14.60;;;8.50;99.90;;;;;;5076945;28;20056;-84
2021/11/13 08:11:34;;;;;;;27.27;14.83;;;8.50;99.90;;;;;;5060207;28;20111;-84
2021/11/13 08:14:00;;;;;;;24.70;14.77;;;8.50;99.90;;;;;;5059515;28;20039;-84
2021/11/13 08:16:26;;;;;;;26.20;14.63;;;8.60;99.90;;;;;;5060286;28;20028;-84
2021/11/13 08:18:52;;;;;;;27.57;15.67;;;8.60;99.90;;;;;;5075951;28;20032;-83
2021/11/13 08:21:18;;;;;;;25.10;14.67;;;8.60;99.90;;;;;;5077898;28;20115;-83
2021/11/13 08:23:44;;;;;;;23.33;15.10;;;8.60;99.90;;;;;;5076740;28;20086;-84
2021/11/13 08:26:10;;;;;;;25.00;14.93;;;8.60;99.90;;;;;;5061135;28;20497;-84
2021/11/13 08:28:36;;;;;;;26.50;15.20;;;8.60;99.90;;;;;;5043186;28;20780;-84
2021/11/13 08:31:02;;;;;;;23.57;13.13;;;8.70;99.90;;;;;;5043490;28;20055;-84
2021/11/13 08:33:29;;;;;;;24.27;14.70;;;8.70;99.90;;;;;;5061461;28;20108;-85
2021/11/13 08:35:56;;;;;;;24.47;14.23;;;8.70;99.90;;;;;;5062651;28;20044;-85
2021/11/13 08:38:22;;;;;;;22.20;14.27;;;8.70;99.90;;;;;;5077708;28;20059;-84
2021/11/13 08:40:50;;;;;;;20.90;12.77;;;8.70;99.90;;;;;;5028357;28;20037;-85
2021/11/13 08:43:18;;;;;;;22.47;13.27;;;8.70;99.90;;;;;;5052999;28;20035;-84
2021/11/13 08:45:44;;;;;;;21.00;13.40;;;8.70;99.90;;;;;;5067251;28;20036;-85
2021/11/13 08:48:14;;;;;;;22.43;13.07;;;8.70;99.90;;;;;;5065487;28;20434;-85
2021/11/13 08:50:42;;;;;;;20.53;12.90;;;8.70;99.90;;;;;;5060987;28;20059;-84
2021/11/13 08:53:10;;;;;;;22.67;12.50;;;8.80;99.90;;;;;;5047593;28;20450;-83
2021/11/13 08:55:38;;;;;;;23.55;12.90;;;8.80;99.90;;;;;;5063382;28;20033;-86
2021/11/13 08:58:06;;;;;;;23.00;11.93;;;8.80;99.90;;;;;;5054149;28;20036;-84
2021/11/13 09:00:37;;;;;;;21.97;12.00;;;8.80;99.90;;;;;;5056821;28;20120;-84
2021/11/13 09:03:07;;;;;;;22.33;12.30;;;8.80;99.90;;;;;;5039464;28;20059;-84
2021/11/13 09:05:33;;;;;;;21.30;10.87;;;8.80;99.90;;;;;;5040144;28;20630;-86
2021/11/13 09:08:01;;;;;;;20.63;12.27;;;8.80;99.90;;;;;;5038608;28;20123;-86
2021/11/13 09:10:27;;;;;;;21.53;11.90;;;8.80;99.90;;;;;;5036585;28;20044;-86
2021/11/13 09:12:54;;;;;;;20.00;11.33;;;8.90;99.90;;;;;;5037756;28;20131;-86
2021/11/13 09:15:30;;;;;;;22.27;12.53;;;8.90;99.90;;;;;;5040902;28;20462;-84
2021/11/13 09:17:57;;;;;;;20.07;11.70;;;8.90;99.90;;;;;;5036159;28;20029;-82
2021/11/13 09:20:24;;;;;;;21.60;12.73;;;8.90;99.90;;;;;;5054049;28;20055;-83
2021/11/13 09:22:51;;;;;;;20.57;11.83;;;9.00;99.90;;;;;;5053405;28;20512;-83
2021/11/13 09:25:17;;;;;;;23.10;12.37;;;9.00;99.90;;;;;;5054365;28;20032;-83
2021/11/13 09:27:45;;;;;;;20.10;12.27;;;9.00;99.90;;;;;;5052096;28;20048;-83
2021/11/13 09:30:18;;;;;;;17.50;11.00;;;9.10;99.90;;;;;;5034173;28;20159;-82
2021/11/13 09:32:46;;;;;;;20.23;12.13;;;9.00;99.90;;;;;;5034083;28;20044;-82
2021/11/13 09:35:13;;;;;;;19.67;11.57;;;9.10;99.90;;;;;;5050822;28;20112;-85
2021/11/13 09:37:40;;;;;;;20.23;12.70;;;9.10;99.90;;;;;;5049750;28;20436;-82
2021/11/13 09:40:09;;;;;;;19.30;12.00;;;9.10;99.90;;;;;;5049077;28;20040;-82
2021/11/13 09:42:35;;;;;;;19.55;12.30;;;9.10;99.90;;;;;;5051137;28;20609;-85
2021/11/13 09:45:02;;;;;;;22.03;12.07;;;9.10;99.90;;;;;;5050880;28;20044;-85
2021/11/13 09:47:28;;;;;;;19.70;12.00;;;9.20;99.90;;;;;;5050435;28;20120;-85
2021/11/13 09:49:54;;;;;;;19.87;12.30;;;9.10;99.90;;;;;;5033869;28;20123;-85
2021/11/13 09:52:20;;;;;;;21.90;12.77;;;9.20;99.90;;;;;;5053019;28;20100;-85
2021/11/13 09:54:46;;;;;;;22.00;12.37;;;9.20;99.90;;;;;;5018165;28;20074;-85
2021/11/13 09:57:12;;;;;;;19.87;12.47;;;9.20;99.90;;;;;;5051717;28;20039;-85
2021/11/13 09:59:38;;;;;;;19.97;12.90;;;9.20;99.90;;;;;;5050119;28;20447;-85
2021/11/13 10:02:04;;;;;;;21.30;12.63;;;9.30;99.90;;;;;;5034584;28;20481;-85
2021/11/13 10:04:30;;;;;;;20.83;12.30;;;9.20;99.90;;;;;;5050945;28;20128;-85
2021/11/13 10:06:56;;;;;;;21.07;12.67;;;9.30;99.90;;;;;;5051317;28;20040;-85
2021/11/13 10:09:22;;;;;;;31.77;18.33;;;9.20;99.90;;;;;;5050964;28;20029;-85
2021/11/13 10:11:51;;;;;;;22.73;14.23;;;9.30;99.90;;;;;;5051304;28;20039;-85
2021/11/13 10:14:35;;;;;;;23.67;12.90;;;9.30;99.90;;;;;;5050973;28;20063;-85
2021/11/13 10:17:02;;;;;;;21.50;12.53;;;9.30;99.90;;;;;;5052674;28;20032;-83
2021/11/13 10:19:28;;;;;;;18.90;12.37;;;9.40;99.90;;;;;;5034419;28;20029;-84
2021/11/13 10:22:01;;;;;;;19.50;12.57;;;9.40;99.90;;;;;;5035012;28;20036;-83
2021/11/13 10:24:28;;;;;;;21.20;12.00;;;9.40;99.90;;;;;;5034933;28;20029;-85
2021/11/13 10:26:58;;;;;;;19.33;11.67;;;9.40;99.90;;;;;;5051757;28;20048;-83
2021/11/13 10:29:24;;;;;;;;;;;9.50;99.90;;;;;;5033669;28;20048;-81
2021/11/13 10:31:52;;;;;;;20.97;12.07;;;9.40;99.90;;;;;;5035229;28;19917;-85
2021/11/13 10:34:32;;;;;;;18.70;11.23;;;9.50;99.90;;;;;;5052178;28;20060;-83
2021/11/13 10:37:10;;;;;;;16.83;10.97;;;9.50;99.90;;;;;;5055572;28;20501;-82
2021/11/13 10:39:42;;;;;;;18.85;12.15;;;9.50;99.90;;;;;;5052944;28;20021;-82
2021/11/13 10:42:12;;;;;;;17.90;11.23;;;9.60;99.90;;;;;;5052464;28;20130;-82
2021/11/13 10:44:41;;;;;;;;;;;9.60;99.90;;;;;;5053459;28;20087;-82
2021/11/13 10:47:17;;;;;;;;;;;9.60;99.90;;;;;;5053802;28;19954;-84
2021/11/13 10:49:45;;;;;;;16.93;10.33;;;9.60;99.90;;;;;;5033559;28;20439;-84
2021/11/13 10:52:12;;;;;;;16.70;10.93;;;9.60;99.90;;;;;;5052014;28;20568;-83
2021/11/13 10:54:50;;;;;;;16.83;10.60;;;9.60;99.90;;;;;;5034632;28;20029;-85
2021/11/13 10:57:29;;;;;;;18.60;11.32;;;9.60;99.90;;;;;;5035375;28;20112;-85
2021/11/13 11:00:16;;;;;;;17.15;11.32;;;9.60;99.90;;;;;;5050108;28;20029;-84
2021/11/13 11:02:44;;;;;;;19.47;11.37;;;9.60;99.90;;;;;;5052171;28;20129;-84
2021/11/13 11:05:15;;;;;;;17.83;11.13;;;9.60;99.90;;;;;;5067647;28;20469;-86
2021/11/13 11:07:41;;;;;;;19.13;11.27;;;9.60;99.90;;;;;;5053366;28;20024;-85
2021/11/13 11:10:10;;;;;;;20.27;12.43;;;9.70;99.90;;;;;;5053288;28;20051;-84
2021/11/13 11:12:38;;;;;;;19.23;12.40;;;9.70;99.90;;;;;;5072015;28;20400;-85
2021/11/13 11:15:10;;;;;;;19.73;12.38;;;9.70;99.90;;;;;;5069767;28;20032;-83
2021/11/13 11:17:35;;;;;;;17.20;12.10;;;9.70;99.90;;;;;;5070565;28;20025;-83
2021/11/13 11:20:07;;;;;;;18.50;12.10;;;9.70;99.90;;;;;;5069107;28;20025;-84
2021/11/13 11:22:33;;;;;;;16.63;11.07;;;9.70;99.90;;;;;;5062026;28;20642;-84
2021/11/13 11:25:03;;;;;;;18.97;11.93;;;9.70;99.90;;;;;;5054653;28;20085;-83
2021/11/13 11:27:48;;;;;;;19.63;12.20;;;9.70;99.90;;;;;;5071262;28;20047;-83
2021/11/13 11:30:14;;;;;;;92.70;43.80;;;9.70;99.90;;;;;;5071387;28;20503;-82
2021/11/13 11:32:40;;;;;;;29.87;15.93;;;9.70;99.90;;;;;;5072123;28;20044;-80
2021/11/13 11:35:19;;;;;;;19.27;12.67;;;9.70;99.90;;;;;;5071279;28;20024;-80
2021/11/13 11:37:56;;;;;;;17.20;11.80;;;9.70;99.90;;;;;;5069692;28;20035;-80
2021/11/13 11:40:24;;;;;;;19.60;11.20;;;9.70;99.90;;;;;;5067409;28;20444;-79
2021/11/13 11:42:51;;;;;;;17.40;12.23;;;9.70;99.90;;;;;;5069216;28;20031;-79
2021/11/13 11:45:22;;;;;;;17.00;11.73;;;9.70;99.90;;;;;;5051401;28;20040;-79
2021/11/13 11:47:49;;;;;;;18.80;12.20;;;9.70;99.90;;;;;;5069083;28;20039;-80
2021/11/13 11:50:16;;;;;;;18.83;12.30;;;9.70;99.90;;;;;;5051140;28;20033;-81
2021/11/13 11:52:45;;;;;;;17.97;11.87;;;9.70;99.90;;;;;;5052389;28;20044;-83
2021/11/13 11:55:14;;;;;;;17.20;11.80;;;9.80;99.90;;;;;;5052387;28;20111;-83
2021/11/13 11:57:43;;;;;;;17.52;11.30;;;9.80;99.90;;;;;;5070767;28;20508;-83
2021/11/13 12:00:18;;;;;;;21.88;11.77;;;9.80;99.90;;;;;;5069076;28;20035;-83
2021/11/13 12:02:46;;;;;;;15.50;11.40;;;9.90;99.90;;;;;;5070558;28;20155;-86
2021/11/13 12:05:16;;;;;;;20.87;12.20;;;9.90;99.90;;;;;;5052953;28;20123;-84
2021/11/13 12:07:44;;;;;;;20.10;11.27;;;9.90;99.90;;;;;;5052230;28;20115;-83
2021/11/13 12:10:14;;;;;;;18.70;11.13;;;9.90;99.90;;;;;;5052117;28;20033;-84
2021/11/13 12:12:58;;;;;;;16.80;10.80;;;9.90;99.90;;;;;;5069562;28;20159;-84
2021/11/13 12:15:27;;;;;;;19.53;11.60;;;10.00;99.90;;;;;;5069936;28;20113;-83
2021/11/13 12:17:57;;;;;;;17.00;11.27;;;10.00;99.90;;;;;;5071108;28;20401;-83
2021/11/13 12:20:31;;;;;;;17.53;12.13;;;10.00;99.90;;;;;;5069597;28;20465;-84
2021/11/13 12:23:08;;;;;;;17.37;11.53;;;10.00;99.90;;;;;;5070161;28;20418;-84
2021/11/13 12:25:37;;;;;;;17.43;12.03;;;10.00;99.90;;;;;;5069730;28;20035;-84
2021/11/13 12:28:11;;;;;;;16.67;11.50;;;10.10;99.90;;;;;;5069252;28;20036;-82
2021/11/13 12:30:46;;;;;;;17.67;12.03;;;10.00;99.90;;;;;;5052298;28;20107;-84
2021/11/13 12:33:27;;;;;;;19.83;12.93;;;10.10;99.90;;;;;;5052462;28;20123;-84
2021/11/13 12:36:01;;;;;;;20.40;12.63;;;10.10;99.90;;;;;;5052943;28;20036;-84
2021/11/13 12:38:42;;;;;;;18.83;13.10;;;10.10;99.90;;;;;;5069469;28;20100;-82
2021/11/13 12:41:27;;;;;;;20.07;13.83;;;10.10;99.90;;;;;;5071317;28;20040;-82